Arlington, Indiana
Current Conditions -  °F | °C
As of 9:09 AM on Monday 24 Nov 2014 (Local Time) from KGEZ Reporting Station
Light Rain Light Rain  
Wind Chill: 56°   Ceiling: 2400
Heat Index: 56°   Visibility: 9mi
Dew Point: 50°   Wind: 22mph
Humidity: 80%   Direction: 230°SW
Pressure: 29.28"   Gusts: 37mph
Location:  39.64°N, 85.57°W
Report Text: KGEZ 241409Z AUTO 23019G32KT 9SM -RA SCT017 BKN024 OVC039 13/10 A2928 RMK AO2 PK WND 23032/1354 RAB05 P0000 T01330100
Loading
Personal Weather Stations






























Interactive Weather Map New forecast layout! Learn more

10-Day Weather Forecast

Advertisements
Track Severe Weather on mobile